<?xml version="1.0" encoding="UTF-8" standalone="no" ?>
<gpx xmlns="http://www.topografix.com/GPX/1/1" xmlns:xsi="http://www.w3.org/2001/XMLSchema-instance" xsi:schemaLocation="http://www.topografix.com/GPX/1/1 http://www.topografix.com/GPX/1/1/gpx.xsd" version="1.1" creator="VisuGPX - https://www.visugpx.com">
  <metadata>
    <name>trail 10km - 330m </name>
    <desc><![CDATA[Parcours entrainement trail , sable, foret , monté et descente....]]></desc>
  </metadata>
  <trk>
    <name><![CDATA[09-MARS-17 21:04:40]]></name>
    <trkseg>
      <trkpt lat="43.59861" lon="-1.43935">
        <ele>12.63</ele>
        <time>2017-03-09T19:01:32Z</time>
      </trkpt>
      <trkpt lat="43.59839" lon="-1.43932">
        <ele>12.63</ele>
        <time>2017-03-09T19:02:07Z</time>
      </trkpt>
      <trkpt lat="43.59838" lon="-1.43933">
        <ele>12.15</ele>
        <time>2017-03-09T19:02:40Z</time>
      </trkpt>
      <trkpt lat="43.59843" lon="-1.43932">
        <ele>14.08</ele>
        <time>2017-03-09T19:03:08Z</time>
      </trkpt>
      <trkpt lat="43.59842" lon="-1.43936">
        <ele>12.63</ele>
        <time>2017-03-09T19:03:48Z</time>
      </trkpt>
      <trkpt lat="43.59841" lon="-1.43936">
        <ele>14.08</ele>
        <time>2017-03-09T19:04:27Z</time>
      </trkpt>
      <trkpt lat="43.59837" lon="-1.43934">
        <ele>15.04</ele>
        <time>2017-03-09T19:04:48Z</time>
      </trkpt>
      <trkpt lat="43.59837" lon="-1.43934">
        <ele>15.04</ele>
        <time>2017-03-09T19:05:07Z</time>
      </trkpt>
      <trkpt lat="43.59836" lon="-1.43932">
        <ele>13.6</ele>
        <time>2017-03-09T19:05:30Z</time>
      </trkpt>
      <trkpt lat="43.59833" lon="-1.43927">
        <ele>14.56</ele>
        <time>2017-03-09T19:05:54Z</time>
      </trkpt>
      <trkpt lat="43.59834" lon="-1.43932">
        <ele>13.12</ele>
        <time>2017-03-09T19:06:13Z</time>
      </trkpt>
      <trkpt lat="43.59831" lon="-1.43929">
        <ele>15.52</ele>
        <time>2017-03-09T19:06:24Z</time>
      </trkpt>
      <trkpt lat="43.59824" lon="-1.43926">
        <ele>19.36</ele>
        <time>2017-03-09T19:06:38Z</time>
      </trkpt>
      <trkpt lat="43.59821" lon="-1.43928">
        <ele>19.84</ele>
        <time>2017-03-09T19:06:42Z</time>
      </trkpt>
      <trkpt lat="43.59796" lon="-1.43945">
        <ele>22.73</ele>
        <time>2017-03-09T19:06:55Z</time>
      </trkpt>
      <trkpt lat="43.59765" lon="-1.43961">
        <ele>21.29</ele>
        <time>2017-03-09T19:07:06Z</time>
      </trkpt>
      <trkpt lat="43.59758" lon="-1.43962">
        <ele>21.77</ele>
        <time>2017-03-09T19:07:08Z</time>
      </trkpt>
      <trkpt lat="43.59739" lon="-1.4395">
        <ele>23.21</ele>
        <time>2017-03-09T19:07:15Z</time>
      </trkpt>
      <trkpt lat="43.5973" lon="-1.43958">
        <ele>22.25</ele>
        <time>2017-03-09T19:07:19Z</time>
      </trkpt>
      <trkpt lat="43.59722" lon="-1.43977">
        <ele>20.32</ele>
        <time>2017-03-09T19:07:24Z</time>
      </trkpt>
      <trkpt lat="43.59701" lon="-1.43982">
        <ele>22.25</ele>
        <time>2017-03-09T19:07:32Z</time>
      </trkpt>
      <trkpt lat="43.59685" lon="-1.43974">
        <ele>26.57</ele>
        <time>2017-03-09T19:07:39Z</time>
      </trkpt>
      <trkpt lat="43.59673" lon="-1.43986">
        <ele>30.42</ele>
        <time>2017-03-09T19:07:45Z</time>
      </trkpt>
      <trkpt lat="43.59673" lon="-1.44001">
        <ele>33.3</ele>
        <time>2017-03-09T19:07:50Z</time>
      </trkpt>
      <trkpt lat="43.59672" lon="-1.44047">
        <ele>38.59</ele>
        <time>2017-03-09T19:08:00Z</time>
      </trkpt>
      <trkpt lat="43.59668" lon="-1.44092">
        <ele>37.63</ele>
        <time>2017-03-09T19:08:11Z</time>
      </trkpt>
      <trkpt lat="43.59669" lon="-1.44126">
        <ele>36.67</ele>
        <time>2017-03-09T19:08:22Z</time>
      </trkpt>
      <trkpt lat="43.5967" lon="-1.44129">
        <ele>36.67</ele>
        <time>2017-03-09T19:08:23Z</time>
      </trkpt>
      <trkpt lat="43.59668" lon="-1.44155">
        <ele>31.38</ele>
        <time>2017-03-09T19:08:30Z</time>
      </trkpt>
      <trkpt lat="43.59671" lon="-1.44191">
        <ele>28.5</ele>
        <time>2017-03-09T19:08:38Z</time>
      </trkpt>
      <trkpt lat="43.59682" lon="-1.4425">
        <ele>18.88</ele>
        <time>2017-03-09T19:08:51Z</time>
      </trkpt>
      <trkpt lat="43.59703" lon="-1.44288">
        <ele>18.88</ele>
        <time>2017-03-09T19:09:01Z</time>
      </trkpt>
      <trkpt lat="43.59714" lon="-1.44325">
        <ele>21.29</ele>
        <time>2017-03-09T19:09:11Z</time>
      </trkpt>
      <trkpt lat="43.59715" lon="-1.44331">
        <ele>24.17</ele>
        <time>2017-03-09T19:09:15Z</time>
      </trkpt>
      <trkpt lat="43.5972" lon="-1.44342">
        <ele>27.05</ele>
        <time>2017-03-09T19:09:21Z</time>
      </trkpt>
      <trkpt lat="43.59729" lon="-1.44351">
        <ele>31.38</ele>
        <time>2017-03-09T19:09:27Z</time>
      </trkpt>
      <trkpt lat="43.59733" lon="-1.4439">
        <ele>34.74</ele>
        <time>2017-03-09T19:09:37Z</time>
      </trkpt>
      <trkpt lat="43.59737" lon="-1.44426">
        <ele>36.19</ele>
        <time>2017-03-09T19:09:45Z</time>
      </trkpt>
      <trkpt lat="43.5974" lon="-1.44458">
        <ele>40.99</ele>
        <time>2017-03-09T19:09:55Z</time>
      </trkpt>
      <trkpt lat="43.5974" lon="-1.44472">
        <ele>42.92</ele>
        <time>2017-03-09T19:09:58Z</time>
      </trkpt>
      <trkpt lat="43.59744" lon="-1.445">
        <ele>45.32</ele>
        <time>2017-03-09T19:10:05Z</time>
      </trkpt>
      <trkpt lat="43.59736" lon="-1.4452">
        <ele>43.4</ele>
        <time>2017-03-09T19:10:13Z</time>
      </trkpt>
      <trkpt lat="43.59732" lon="-1.44524">
        <ele>43.4</ele>
        <time>2017-03-09T19:10:15Z</time>
      </trkpt>
      <trkpt lat="43.59726" lon="-1.44542">
        <ele>42.44</ele>
        <time>2017-03-09T19:10:20Z</time>
      </trkpt>
      <trkpt lat="43.59721" lon="-1.44543">
        <ele>41.95</ele>
        <time>2017-03-09T19:10:24Z</time>
      </trkpt>
      <trkpt lat="43.59715" lon="-1.44546">
        <ele>41.95</ele>
        <time>2017-03-09T19:10:29Z</time>
      </trkpt>
      <trkpt lat="43.59698" lon="-1.44557">
        <ele>42.92</ele>
        <time>2017-03-09T19:10:34Z</time>
      </trkpt>
      <trkpt lat="43.59685" lon="-1.44565">
        <ele>45.32</ele>
        <time>2017-03-09T19:10:38Z</time>
      </trkpt>
      <trkpt lat="43.59678" lon="-1.44573">
        <ele>45.32</ele>
        <time>2017-03-09T19:10:44Z</time>
      </trkpt>
      <trkpt lat="43.59658" lon="-1.44577">
        <ele>49.16</ele>
        <time>2017-03-09T19:10:49Z</time>
      </trkpt>
      <trkpt lat="43.59639" lon="-1.44587">
        <ele>47.24</ele>
        <time>2017-03-09T19:10:57Z</time>
      </trkpt>
      <trkpt lat="43.59633" lon="-1.44592">
        <ele>46.28</ele>
        <time>2017-03-09T19:10:59Z</time>
      </trkpt>
      <trkpt lat="43.59626" lon="-1.44592">
        <ele>52.53</ele>
        <time>2017-03-09T19:11:05Z</time>
      </trkpt>
      <trkpt lat="43.59623" lon="-1.44587">
        <ele>55.89</ele>
        <time>2017-03-09T19:11:07Z</time>
      </trkpt>
      <trkpt lat="43.59607" lon="-1.4455">
        <ele>57.82</ele>
        <time>2017-03-09T19:11:18Z</time>
      </trkpt>
      <trkpt lat="43.596" lon="-1.44512">
        <ele>54.45</ele>
        <time>2017-03-09T19:11:28Z</time>
      </trkpt>
      <trkpt lat="43.59602" lon="-1.44484">
        <ele>51.57</ele>
        <time>2017-03-09T19:11:35Z</time>
      </trkpt>
      <trkpt lat="43.59602" lon="-1.44465">
        <ele>51.57</ele>
        <time>2017-03-09T19:11:40Z</time>
      </trkpt>
      <trkpt lat="43.596" lon="-1.44451">
        <ele>51.57</ele>
        <time>2017-03-09T19:11:44Z</time>
      </trkpt>
      <trkpt lat="43.59591" lon="-1.44445">
        <ele>51.57</ele>
        <time>2017-03-09T19:11:50Z</time>
      </trkpt>
      <trkpt lat="43.59576" lon="-1.4444">
        <ele>49.65</ele>
        <time>2017-03-09T19:12:03Z</time>
      </trkpt>
      <trkpt lat="43.59566" lon="-1.44437">
        <ele>50.61</ele>
        <time>2017-03-09T19:12:09Z</time>
      </trkpt>
      <trkpt lat="43.5955" lon="-1.44427">
        <ele>56.37</ele>
        <time>2017-03-09T19:12:19Z</time>
      </trkpt>
      <trkpt lat="43.59543" lon="-1.44425">
        <ele>53.49</ele>
        <time>2017-03-09T19:12:22Z</time>
      </trkpt>
      <trkpt lat="43.59537" lon="-1.44419">
        <ele>53.49</ele>
        <time>2017-03-09T19:12:28Z</time>
      </trkpt>
      <trkpt lat="43.5953" lon="-1.444">
        <ele>58.78</ele>
        <time>2017-03-09T19:12:39Z</time>
      </trkpt>
      <trkpt lat="43.59531" lon="-1.44399">
        <ele>59.26</ele>
        <time>2017-03-09T19:12:40Z</time>
      </trkpt>
      <trkpt lat="43.59526" lon="-1.4438">
        <ele>58.78</ele>
        <time>2017-03-09T19:12:47Z</time>
      </trkpt>
      <trkpt lat="43.5952" lon="-1.44367">
        <ele>58.78</ele>
        <time>2017-03-09T19:12:52Z</time>
      </trkpt>
      <trkpt lat="43.59512" lon="-1.44355">
        <ele>61.18</ele>
        <time>2017-03-09T19:12:57Z</time>
      </trkpt>
      <trkpt lat="43.59499" lon="-1.44337">
        <ele>65.51</ele>
        <time>2017-03-09T19:13:06Z</time>
      </trkpt>
      <trkpt lat="43.59494" lon="-1.44331">
        <ele>65.03</ele>
        <time>2017-03-09T19:13:09Z</time>
      </trkpt>
      <trkpt lat="43.59481" lon="-1.44292">
        <ele>62.14</ele>
        <time>2017-03-09T19:13:22Z</time>
      </trkpt>
      <trkpt lat="43.59481" lon="-1.4429">
        <ele>62.14</ele>
        <time>2017-03-09T19:13:23Z</time>
      </trkpt>
      <trkpt lat="43.59468" lon="-1.44265">
        <ele>61.66</ele>
        <time>2017-03-09T19:13:33Z</time>
      </trkpt>
      <trkpt lat="43.59468" lon="-1.4426">
        <ele>60.22</ele>
        <time>2017-03-09T19:13:37Z</time>
      </trkpt>
      <trkpt lat="43.59465" lon="-1.44252">
        <ele>59.74</ele>
        <time>2017-03-09T19:13:40Z</time>
      </trkpt>
      <trkpt lat="43.59458" lon="-1.44223">
        <ele>62.62</ele>
        <time>2017-03-09T19:13:50Z</time>
      </trkpt>
      <trkpt lat="43.5944" lon="-1.44183">
        <ele>60.22</ele>
        <time>2017-03-09T19:14:02Z</time>
      </trkpt>
      <trkpt lat="43.59435" lon="-1.44176">
        <ele>61.18</ele>
        <time>2017-03-09T19:14:05Z</time>
      </trkpt>
      <trkpt lat="43.59429" lon="-1.44165">
        <ele>62.14</ele>
        <time>2017-03-09T19:14:09Z</time>
      </trkpt>
      <trkpt lat="43.59416" lon="-1.44127">
        <ele>64.07</ele>
        <time>2017-03-09T19:14:20Z</time>
      </trkpt>
      <trkpt lat="43.59409" lon="-1.4412">
        <ele>58.3</ele>
        <time>2017-03-09T19:14:25Z</time>
      </trkpt>
      <trkpt lat="43.594" lon="-1.44103">
        <ele>53.97</ele>
        <time>2017-03-09T19:14:35Z</time>
      </trkpt>
      <trkpt lat="43.59394" lon="-1.44082">
        <ele>54.45</ele>
        <time>2017-03-09T19:14:42Z</time>
      </trkpt>
      <trkpt lat="43.59389" lon="-1.44077">
        <ele>54.93</ele>
        <time>2017-03-09T19:14:46Z</time>
      </trkpt>
      <trkpt lat="43.59395" lon="-1.44043">
        <ele>58.3</ele>
        <time>2017-03-09T19:14:55Z</time>
      </trkpt>
      <trkpt lat="43.59396" lon="-1.44023">
        <ele>59.74</ele>
        <time>2017-03-09T19:15:00Z</time>
      </trkpt>
      <trkpt lat="43.59382" lon="-1.43997">
        <ele>56.37</ele>
        <time>2017-03-09T19:15:09Z</time>
      </trkpt>
      <trkpt lat="43.59376" lon="-1.43977">
        <ele>54.93</ele>
        <time>2017-03-09T19:15:16Z</time>
      </trkpt>
      <trkpt lat="43.59372" lon="-1.43971">
        <ele>56.37</ele>
        <time>2017-03-09T19:15:20Z</time>
      </trkpt>
      <trkpt lat="43.59364" lon="-1.43942">
        <ele>59.74</ele>
        <time>2017-03-09T19:15:32Z</time>
      </trkpt>
      <trkpt lat="43.59363" lon="-1.4394">
        <ele>61.18</ele>
        <time>2017-03-09T19:15:34Z</time>
      </trkpt>
      <trkpt lat="43.59355" lon="-1.43914">
        <ele>63.58</ele>
        <time>2017-03-09T19:15:44Z</time>
      </trkpt>
      <trkpt lat="43.59345" lon="-1.43884">
        <ele>65.99</ele>
        <time>2017-03-09T19:15:55Z</time>
      </trkpt>
      <trkpt lat="43.59341" lon="-1.4388">
        <ele>66.47</ele>
        <time>2017-03-09T19:15:57Z</time>
      </trkpt>
      <trkpt lat="43.59331" lon="-1.4384">
        <ele>65.99</ele>
        <time>2017-03-09T19:16:06Z</time>
      </trkpt>
      <trkpt lat="43.59318" lon="-1.43796">
        <ele>58.78</ele>
        <time>2017-03-09T19:16:15Z</time>
      </trkpt>
      <trkpt lat="43.59312" lon="-1.43795">
        <ele>56.37</ele>
        <time>2017-03-09T19:16:19Z</time>
      </trkpt>
      <trkpt lat="43.59296" lon="-1.43794">
        <ele>47.24</ele>
        <time>2017-03-09T19:16:27Z</time>
      </trkpt>
      <trkpt lat="43.59276" lon="-1.4383">
        <ele>44.36</ele>
        <time>2017-03-09T19:16:39Z</time>
      </trkpt>
      <trkpt lat="43.59264" lon="-1.43881">
        <ele>42.92</ele>
        <time>2017-03-09T19:16:53Z</time>
      </trkpt>
      <trkpt lat="43.59259" lon="-1.43902">
        <ele>42.92</ele>
        <time>2017-03-09T19:16:59Z</time>
      </trkpt>
      <trkpt lat="43.59259" lon="-1.43944">
        <ele>45.32</ele>
        <time>2017-03-09T19:17:12Z</time>
      </trkpt>
      <trkpt lat="43.59263" lon="-1.43977">
        <ele>47.24</ele>
        <time>2017-03-09T19:17:23Z</time>
      </trkpt>
      <trkpt lat="43.59269" lon="-1.44009">
        <ele>46.76</ele>
        <time>2017-03-09T19:17:34Z</time>
      </trkpt>
      <trkpt lat="43.59274" lon="-1.44043">
        <ele>46.76</ele>
        <time>2017-03-09T19:17:46Z</time>
      </trkpt>
      <trkpt lat="43.59275" lon="-1.44083">
        <ele>45.8</ele>
        <time>2017-03-09T19:17:58Z</time>
      </trkpt>
      <trkpt lat="43.59281" lon="-1.44119">
        <ele>45.32</ele>
        <time>2017-03-09T19:18:08Z</time>
      </trkpt>
      <trkpt lat="43.59284" lon="-1.44133">
        <ele>43.88</ele>
        <time>2017-03-09T19:18:12Z</time>
      </trkpt>
      <trkpt lat="43.59297" lon="-1.44171">
        <ele>43.88</ele>
        <time>2017-03-09T19:18:24Z</time>
      </trkpt>
      <trkpt lat="43.59302" lon="-1.44202">
        <ele>44.84</ele>
        <time>2017-03-09T19:18:33Z</time>
      </trkpt>
      <trkpt lat="43.59301" lon="-1.44212">
        <ele>44.84</ele>
        <time>2017-03-09T19:18:36Z</time>
      </trkpt>
      <trkpt lat="43.593" lon="-1.44227">
        <ele>36.19</ele>
        <time>2017-03-09T19:18:42Z</time>
      </trkpt>
      <trkpt lat="43.59294" lon="-1.44244">
        <ele>38.59</ele>
        <time>2017-03-09T19:18:55Z</time>
      </trkpt>
      <trkpt lat="43.59289" lon="-1.44248">
        <ele>40.03</ele>
        <time>2017-03-09T19:19:02Z</time>
      </trkpt>
      <trkpt lat="43.59286" lon="-1.44242">
        <ele>40.99</ele>
        <time>2017-03-09T19:19:07Z</time>
      </trkpt>
      <trkpt lat="43.59284" lon="-1.44238">
        <ele>41.47</ele>
        <time>2017-03-09T19:19:09Z</time>
      </trkpt>
      <trkpt lat="43.59276" lon="-1.44218">
        <ele>42.92</ele>
        <time>2017-03-09T19:19:19Z</time>
      </trkpt>
      <trkpt lat="43.59271" lon="-1.44197">
        <ele>44.84</ele>
        <time>2017-03-09T19:19:30Z</time>
      </trkpt>
      <trkpt lat="43.5927" lon="-1.44195">
        <ele>45.8</ele>
        <time>2017-03-09T19:19:34Z</time>
      </trkpt>
      <trkpt lat="43.59268" lon="-1.4419">
        <ele>48.2</ele>
        <time>2017-03-09T19:19:37Z</time>
      </trkpt>
      <trkpt lat="43.59268" lon="-1.44186">
        <ele>50.13</ele>
        <time>2017-03-09T19:19:39Z</time>
      </trkpt>
      <trkpt lat="43.59262" lon="-1.44169">
        <ele>54.93</ele>
        <time>2017-03-09T19:19:47Z</time>
      </trkpt>
      <trkpt lat="43.59259" lon="-1.44163">
        <ele>57.82</ele>
        <time>2017-03-09T19:19:50Z</time>
      </trkpt>
      <trkpt lat="43.59261" lon="-1.44134">
        <ele>66.95</ele>
        <time>2017-03-09T19:19:57Z</time>
      </trkpt>
      <trkpt lat="43.59252" lon="-1.44094">
        <ele>72.24</ele>
        <time>2017-03-09T19:20:08Z</time>
      </trkpt>
      <trkpt lat="43.59251" lon="-1.44087">
        <ele>72.72</ele>
        <time>2017-03-09T19:20:10Z</time>
      </trkpt>
      <trkpt lat="43.59246" lon="-1.44066">
        <ele>73.68</ele>
        <time>2017-03-09T19:20:18Z</time>
      </trkpt>
      <trkpt lat="43.59244" lon="-1.4406">
        <ele>73.2</ele>
        <time>2017-03-09T19:20:20Z</time>
      </trkpt>
      <trkpt lat="43.59233" lon="-1.44027">
        <ele>68.87</ele>
        <time>2017-03-09T19:20:30Z</time>
      </trkpt>
      <trkpt lat="43.59231" lon="-1.44024">
        <ele>68.39</ele>
        <time>2017-03-09T19:20:31Z</time>
      </trkpt>
      <trkpt lat="43.59214" lon="-1.43998">
        <ele>61.18</ele>
        <time>2017-03-09T19:20:41Z</time>
      </trkpt>
      <trkpt lat="43.59206" lon="-1.44003">
        <ele>55.41</ele>
        <time>2017-03-09T19:20:46Z</time>
      </trkpt>
      <trkpt lat="43.59192" lon="-1.44036">
        <ele>51.09</ele>
        <time>2017-03-09T19:20:57Z</time>
      </trkpt>
      <trkpt lat="43.59186" lon="-1.44045">
        <ele>51.09</ele>
        <time>2017-03-09T19:21:01Z</time>
      </trkpt>
      <trkpt lat="43.59185" lon="-1.44061">
        <ele>51.57</ele>
        <time>2017-03-09T19:21:07Z</time>
      </trkpt>
      <trkpt lat="43.59187" lon="-1.4409">
        <ele>53.01</ele>
        <time>2017-03-09T19:21:16Z</time>
      </trkpt>
      <trkpt lat="43.59188" lon="-1.44093">
        <ele>53.49</ele>
        <time>2017-03-09T19:21:17Z</time>
      </trkpt>
      <trkpt lat="43.59187" lon="-1.44125">
        <ele>59.26</ele>
        <time>2017-03-09T19:21:27Z</time>
      </trkpt>
      <trkpt lat="43.59193" lon="-1.4417">
        <ele>70.31</ele>
        <time>2017-03-09T19:21:39Z</time>
      </trkpt>
      <trkpt lat="43.59205" lon="-1.44203">
        <ele>80.41</ele>
        <time>2017-03-09T19:21:49Z</time>
      </trkpt>
      <trkpt lat="43.59213" lon="-1.4421">
        <ele>83.29</ele>
        <time>2017-03-09T19:21:52Z</time>
      </trkpt>
      <trkpt lat="43.59233" lon="-1.44252">
        <ele>85.69</ele>
        <time>2017-03-09T19:22:04Z</time>
      </trkpt>
      <trkpt lat="43.59255" lon="-1.4429">
        <ele>86.66</ele>
        <time>2017-03-09T19:22:16Z</time>
      </trkpt>
      <trkpt lat="43.5927" lon="-1.44304">
        <ele>86.66</ele>
        <time>2017-03-09T19:22:22Z</time>
      </trkpt>
      <trkpt lat="43.59278" lon="-1.44297">
        <ele>85.21</ele>
        <time>2017-03-09T19:22:27Z</time>
      </trkpt>
      <trkpt lat="43.59305" lon="-1.44294">
        <ele>43.88</ele>
        <time>2017-03-09T19:22:37Z</time>
      </trkpt>
      <trkpt lat="43.59309" lon="-1.44264">
        <ele>26.09</ele>
        <time>2017-03-09T19:22:47Z</time>
      </trkpt>
      <trkpt lat="43.59309" lon="-1.44254">
        <ele>25.61</ele>
        <time>2017-03-09T19:22:50Z</time>
      </trkpt>
      <trkpt lat="43.59296" lon="-1.44248">
        <ele>27.53</ele>
        <time>2017-03-09T19:22:59Z</time>
      </trkpt>
      <trkpt lat="43.5929" lon="-1.44251">
        <ele>34.74</ele>
        <time>2017-03-09T19:23:08Z</time>
      </trkpt>
      <trkpt lat="43.59289" lon="-1.44252">
        <ele>37.63</ele>
        <time>2017-03-09T19:23:18Z</time>
      </trkpt>
      <trkpt lat="43.59288" lon="-1.44252">
        <ele>38.11</ele>
        <time>2017-03-09T19:23:19Z</time>
      </trkpt>
      <trkpt lat="43.59279" lon="-1.44235">
        <ele>38.59</ele>
        <time>2017-03-09T19:23:29Z</time>
      </trkpt>
      <trkpt lat="43.59269" lon="-1.44209">
        <ele>40.51</ele>
        <time>2017-03-09T19:23:41Z</time>
      </trkpt>
      <trkpt lat="43.59264" lon="-1.442">
        <ele>49.65</ele>
        <time>2017-03-09T19:23:52Z</time>
      </trkpt>
      <trkpt lat="43.59262" lon="-1.44193">
        <ele>53.01</ele>
        <time>2017-03-09T19:23:56Z</time>
      </trkpt>
      <trkpt lat="43.5926" lon="-1.44185">
        <ele>55.41</ele>
        <time>2017-03-09T19:24:00Z</time>
      </trkpt>
      <trkpt lat="43.59254" lon="-1.44168">
        <ele>59.74</ele>
        <time>2017-03-09T19:24:07Z</time>
      </trkpt>
      <trkpt lat="43.59252" lon="-1.44137">
        <ele>59.26</ele>
        <time>2017-03-09T19:24:16Z</time>
      </trkpt>
      <trkpt lat="43.5925" lon="-1.44128">
        <ele>59.74</ele>
        <time>2017-03-09T19:24:18Z</time>
      </trkpt>
      <trkpt lat="43.5925" lon="-1.441">
        <ele>60.22</ele>
        <time>2017-03-09T19:24:22Z</time>
      </trkpt>
      <trkpt lat="43.59246" lon="-1.4407">
        <ele>58.78</ele>
        <time>2017-03-09T19:24:29Z</time>
      </trkpt>
      <trkpt lat="43.59241" lon="-1.44056">
        <ele>59.74</ele>
        <time>2017-03-09T19:24:34Z</time>
      </trkpt>
      <trkpt lat="43.59233" lon="-1.44025">
        <ele>60.7</ele>
        <time>2017-03-09T19:24:44Z</time>
      </trkpt>
      <trkpt lat="43.5923" lon="-1.4402">
        <ele>60.22</ele>
        <time>2017-03-09T19:24:46Z</time>
      </trkpt>
      <trkpt lat="43.59226" lon="-1.44011">
        <ele>59.26</ele>
        <time>2017-03-09T19:24:49Z</time>
      </trkpt>
      <trkpt lat="43.59212" lon="-1.43999">
        <ele>57.82</ele>
        <time>2017-03-09T19:24:58Z</time>
      </trkpt>
      <trkpt lat="43.59211" lon="-1.43999">
        <ele>57.34</ele>
        <time>2017-03-09T19:24:59Z</time>
      </trkpt>
      <trkpt lat="43.59202" lon="-1.44009">
        <ele>54.93</ele>
        <time>2017-03-09T19:25:04Z</time>
      </trkpt>
      <trkpt lat="43.59193" lon="-1.44036">
        <ele>51.57</ele>
        <time>2017-03-09T19:25:12Z</time>
      </trkpt>
      <trkpt lat="43.59187" lon="-1.44043">
        <ele>51.57</ele>
        <time>2017-03-09T19:25:15Z</time>
      </trkpt>
      <trkpt lat="43.59184" lon="-1.44061">
        <ele>52.53</ele>
        <time>2017-03-09T19:25:21Z</time>
      </trkpt>
      <trkpt lat="43.59186" lon="-1.44078">
        <ele>53.97</ele>
        <time>2017-03-09T19:25:26Z</time>
      </trkpt>
      <trkpt lat="43.5919" lon="-1.44097">
        <ele>55.41</ele>
        <time>2017-03-09T19:25:31Z</time>
      </trkpt>
      <trkpt lat="43.59189" lon="-1.44116">
        <ele>57.82</ele>
        <time>2017-03-09T19:25:37Z</time>
      </trkpt>
      <trkpt lat="43.59194" lon="-1.44159">
        <ele>60.22</ele>
        <time>2017-03-09T19:25:48Z</time>
      </trkpt>
      <trkpt lat="43.59195" lon="-1.44167">
        <ele>60.7</ele>
        <time>2017-03-09T19:25:50Z</time>
      </trkpt>
      <trkpt lat="43.59199" lon="-1.44184">
        <ele>61.18</ele>
        <time>2017-03-09T19:25:54Z</time>
      </trkpt>
      <trkpt lat="43.59216" lon="-1.44212">
        <ele>63.1</ele>
        <time>2017-03-09T19:26:03Z</time>
      </trkpt>
      <trkpt lat="43.59233" lon="-1.44245">
        <ele>64.07</ele>
        <time>2017-03-09T19:26:12Z</time>
      </trkpt>
      <trkpt lat="43.59254" lon="-1.44289">
        <ele>65.03</ele>
        <time>2017-03-09T19:26:24Z</time>
      </trkpt>
      <trkpt lat="43.5928" lon="-1.44312">
        <ele>64.55</ele>
        <time>2017-03-09T19:26:34Z</time>
      </trkpt>
      <trkpt lat="43.59296" lon="-1.44314">
        <ele>44.84</ele>
        <time>2017-03-09T19:26:41Z</time>
      </trkpt>
      <trkpt lat="43.59311" lon="-1.44281">
        <ele>27.53</ele>
        <time>2017-03-09T19:26:55Z</time>
      </trkpt>
      <trkpt lat="43.59312" lon="-1.44254">
        <ele>23.21</ele>
        <time>2017-03-09T19:27:03Z</time>
      </trkpt>
      <trkpt lat="43.59305" lon="-1.44248">
        <ele>21.77</ele>
        <time>2017-03-09T19:27:07Z</time>
      </trkpt>
      <trkpt lat="43.59293" lon="-1.44252">
        <ele>26.09</ele>
        <time>2017-03-09T19:27:20Z</time>
      </trkpt>
      <trkpt lat="43.59288" lon="-1.44255">
        <ele>30.9</ele>
        <time>2017-03-09T19:27:29Z</time>
      </trkpt>
      <trkpt lat="43.59283" lon="-1.44249">
        <ele>32.34</ele>
        <time>2017-03-09T19:27:35Z</time>
      </trkpt>
      <trkpt lat="43.59274" lon="-1.44222">
        <ele>33.3</ele>
        <time>2017-03-09T19:27:47Z</time>
      </trkpt>
      <trkpt lat="43.59273" lon="-1.44215">
        <ele>35.23</ele>
        <time>2017-03-09T19:27:51Z</time>
      </trkpt>
      <trkpt lat="43.5927" lon="-1.44208">
        <ele>37.15</ele>
        <time>2017-03-09T19:27:55Z</time>
      </trkpt>
      <trkpt lat="43.59269" lon="-1.442">
        <ele>38.11</ele>
        <time>2017-03-09T19:27:58Z</time>
      </trkpt>
      <trkpt lat="43.59266" lon="-1.44189">
        <ele>40.03</ele>
        <time>2017-03-09T19:28:03Z</time>
      </trkpt>
      <trkpt lat="43.59264" lon="-1.44183">
        <ele>41.95</ele>
        <time>2017-03-09T19:28:07Z</time>
      </trkpt>
      <trkpt lat="43.59261" lon="-1.44148">
        <ele>44.84</ele>
        <time>2017-03-09T19:28:17Z</time>
      </trkpt>
      <trkpt lat="43.59256" lon="-1.44133">
        <ele>45.8</ele>
        <time>2017-03-09T19:28:23Z</time>
      </trkpt>
      <trkpt lat="43.59257" lon="-1.44111">
        <ele>46.76</ele>
        <time>2017-03-09T19:28:29Z</time>
      </trkpt>
      <trkpt lat="43.59253" lon="-1.4409">
        <ele>46.76</ele>
        <time>2017-03-09T19:28:35Z</time>
      </trkpt>
      <trkpt lat="43.59247" lon="-1.4406">
        <ele>47.24</ele>
        <time>2017-03-09T19:28:44Z</time>
      </trkpt>
      <trkpt lat="43.59242" lon="-1.44039">
        <ele>48.68</ele>
        <time>2017-03-09T19:28:52Z</time>
      </trkpt>
      <trkpt lat="43.5924" lon="-1.44033">
        <ele>48.68</ele>
        <time>2017-03-09T19:28:54Z</time>
      </trkpt>
      <trkpt lat="43.59228" lon="-1.44003">
        <ele>47.72</ele>
        <time>2017-03-09T19:29:04Z</time>
      </trkpt>
      <trkpt lat="43.59221" lon="-1.43998">
        <ele>47.72</ele>
        <time>2017-03-09T19:29:08Z</time>
      </trkpt>
      <trkpt lat="43.59204" lon="-1.44013">
        <ele>44.84</ele>
        <time>2017-03-09T19:29:18Z</time>
      </trkpt>
      <trkpt lat="43.59189" lon="-1.44049">
        <ele>40.51</ele>
        <time>2017-03-09T19:29:30Z</time>
      </trkpt>
      <trkpt lat="43.5919" lon="-1.44067">
        <ele>39.07</ele>
        <time>2017-03-09T19:29:36Z</time>
      </trkpt>
      <trkpt lat="43.59195" lon="-1.441">
        <ele>37.63</ele>
        <time>2017-03-09T19:29:45Z</time>
      </trkpt>
      <trkpt lat="43.59195" lon="-1.44113">
        <ele>37.63</ele>
        <time>2017-03-09T19:29:49Z</time>
      </trkpt>
      <trkpt lat="43.59195" lon="-1.44131">
        <ele>39.55</ele>
        <time>2017-03-09T19:29:56Z</time>
      </trkpt>
      <trkpt lat="43.592" lon="-1.44164">
        <ele>43.4</ele>
        <time>2017-03-09T19:30:05Z</time>
      </trkpt>
      <trkpt lat="43.59205" lon="-1.44185">
        <ele>48.68</ele>
        <time>2017-03-09T19:30:12Z</time>
      </trkpt>
      <trkpt lat="43.59207" lon="-1.44194">
        <ele>51.09</ele>
        <time>2017-03-09T19:30:15Z</time>
      </trkpt>
      <trkpt lat="43.59218" lon="-1.44206">
        <ele>56.86</ele>
        <time>2017-03-09T19:30:20Z</time>
      </trkpt>
      <trkpt lat="43.59224" lon="-1.44215">
        <ele>60.22</ele>
        <time>2017-03-09T19:30:23Z</time>
      </trkpt>
      <trkpt lat="43.59243" lon="-1.4426">
        <ele>65.99</ele>
        <time>2017-03-09T19:30:35Z</time>
      </trkpt>
      <trkpt lat="43.59258" lon="-1.44292">
        <ele>67.43</ele>
        <time>2017-03-09T19:30:44Z</time>
      </trkpt>
      <trkpt lat="43.59265" lon="-1.44298">
        <ele>67.43</ele>
        <time>2017-03-09T19:30:47Z</time>
      </trkpt>
      <trkpt lat="43.59278" lon="-1.44309">
        <ele>67.91</ele>
        <time>2017-03-09T19:30:52Z</time>
      </trkpt>
      <trkpt lat="43.593" lon="-1.44316">
        <ele>25.13</ele>
        <time>2017-03-09T19:31:01Z</time>
      </trkpt>
      <trkpt lat="43.59298" lon="-1.44308">
        <ele>22.25</ele>
        <time>2017-03-09T19:31:05Z</time>
      </trkpt>
      <trkpt lat="43.59295" lon="-1.44296">
        <ele>21.77</ele>
        <time>2017-03-09T19:31:12Z</time>
      </trkpt>
      <trkpt lat="43.59292" lon="-1.44284">
        <ele>21.77</ele>
        <time>2017-03-09T19:31:19Z</time>
      </trkpt>
      <trkpt lat="43.59283" lon="-1.44262">
        <ele>24.17</ele>
        <time>2017-03-09T19:31:31Z</time>
      </trkpt>
      <trkpt lat="43.59281" lon="-1.44252">
        <ele>24.17</ele>
        <time>2017-03-09T19:31:35Z</time>
      </trkpt>
      <trkpt lat="43.59276" lon="-1.44226">
        <ele>26.57</ele>
        <time>2017-03-09T19:31:47Z</time>
      </trkpt>
      <trkpt lat="43.59274" lon="-1.44215">
        <ele>28.02</ele>
        <time>2017-03-09T19:31:52Z</time>
      </trkpt>
      <trkpt lat="43.5927" lon="-1.44192">
        <ele>32.34</ele>
        <time>2017-03-09T19:32:03Z</time>
      </trkpt>
      <trkpt lat="43.59268" lon="-1.44185">
        <ele>34.74</ele>
        <time>2017-03-09T19:32:07Z</time>
      </trkpt>
      <trkpt lat="43.59265" lon="-1.44178">
        <ele>37.15</ele>
        <time>2017-03-09T19:32:11Z</time>
      </trkpt>
      <trkpt lat="43.59264" lon="-1.44176">
        <ele>38.11</ele>
        <time>2017-03-09T19:32:13Z</time>
      </trkpt>
      <trkpt lat="43.5926" lon="-1.44164">
        <ele>40.51</ele>
        <time>2017-03-09T19:32:18Z</time>
      </trkpt>
      <trkpt lat="43.59254" lon="-1.4415">
        <ele>43.4</ele>
        <time>2017-03-09T19:32:24Z</time>
      </trkpt>
      <trkpt lat="43.59252" lon="-1.44142">
        <ele>45.32</ele>
        <time>2017-03-09T19:32:27Z</time>
      </trkpt>
      <trkpt lat="43.59254" lon="-1.44116">
        <ele>47.24</ele>
        <time>2017-03-09T19:32:33Z</time>
      </trkpt>
      <trkpt lat="43.59247" lon="-1.44074">
        <ele>47.72</ele>
        <time>2017-03-09T19:32:44Z</time>
      </trkpt>
      <trkpt lat="43.59242" lon="-1.44044">
        <ele>48.68</ele>
        <time>2017-03-09T19:32:53Z</time>
      </trkpt>
      <trkpt lat="43.59238" lon="-1.44033">
        <ele>47.72</ele>
        <time>2017-03-09T19:32:57Z</time>
      </trkpt>
      <trkpt lat="43.59228" lon="-1.44004">
        <ele>45.8</ele>
        <time>2017-03-09T19:33:07Z</time>
      </trkpt>
      <trkpt lat="43.59213" lon="-1.43992">
        <ele>40.03</ele>
        <time>2017-03-09T19:33:16Z</time>
      </trkpt>
      <trkpt lat="43.592" lon="-1.4402">
        <ele>37.15</ele>
        <time>2017-03-09T19:33:26Z</time>
      </trkpt>
      <trkpt lat="43.59198" lon="-1.44026">
        <ele>36.67</ele>
        <time>2017-03-09T19:33:28Z</time>
      </trkpt>
      <trkpt lat="43.59196" lon="-1.44033">
        <ele>36.19</ele>
        <time>2017-03-09T19:33:30Z</time>
      </trkpt>
      <trkpt lat="43.59188" lon="-1.44065">
        <ele>36.19</ele>
        <time>2017-03-09T19:33:41Z</time>
      </trkpt>
      <trkpt lat="43.59189" lon="-1.44068">
        <ele>35.71</ele>
        <time>2017-03-09T19:33:42Z</time>
      </trkpt>
      <trkpt lat="43.59189" lon="-1.44081">
        <ele>34.26</ele>
        <time>2017-03-09T19:33:46Z</time>
      </trkpt>
      <trkpt lat="43.59194" lon="-1.44099">
        <ele>33.78</ele>
        <time>2017-03-09T19:33:52Z</time>
      </trkpt>
      <trkpt lat="43.59193" lon="-1.44127">
        <ele>36.67</ele>
        <time>2017-03-09T19:34:02Z</time>
      </trkpt>
      <trkpt lat="43.59198" lon="-1.44159">
        <ele>40.03</ele>
        <time>2017-03-09T19:34:11Z</time>
      </trkpt>
      <trkpt lat="43.59205" lon="-1.44181">
        <ele>43.4</ele>
        <time>2017-03-09T19:34:19Z</time>
      </trkpt>
      <trkpt lat="43.59209" lon="-1.44196">
        <ele>46.28</ele>
        <time>2017-03-09T19:34:23Z</time>
      </trkpt>
      <trkpt lat="43.59228" lon="-1.44227">
        <ele>53.49</ele>
        <time>2017-03-09T19:34:33Z</time>
      </trkpt>
      <trkpt lat="43.59239" lon="-1.44249">
        <ele>57.82</ele>
        <time>2017-03-09T19:34:40Z</time>
      </trkpt>
      <trkpt lat="43.59262" lon="-1.44294">
        <ele>63.58</ele>
        <time>2017-03-09T19:34:53Z</time>
      </trkpt>
      <trkpt lat="43.5928" lon="-1.44309">
        <ele>63.58</ele>
        <time>2017-03-09T19:35:00Z</time>
      </trkpt>
      <trkpt lat="43.59282" lon="-1.44346">
        <ele>57.34</ele>
        <time>2017-03-09T19:35:09Z</time>
      </trkpt>
      <trkpt lat="43.59285" lon="-1.44387">
        <ele>52.05</ele>
        <time>2017-03-09T19:35:21Z</time>
      </trkpt>
      <trkpt lat="43.593" lon="-1.44432">
        <ele>40.03</ele>
        <time>2017-03-09T19:35:34Z</time>
      </trkpt>
      <trkpt lat="43.59314" lon="-1.44469">
        <ele>33.78</ele>
        <time>2017-03-09T19:35:44Z</time>
      </trkpt>
      <trkpt lat="43.59327" lon="-1.4451">
        <ele>26.57</ele>
        <time>2017-03-09T19:35:55Z</time>
      </trkpt>
      <trkpt lat="43.59339" lon="-1.44554">
        <ele>22.73</ele>
        <time>2017-03-09T19:36:08Z</time>
      </trkpt>
      <trkpt lat="43.59351" lon="-1.44593">
        <ele>17.44</ele>
        <time>2017-03-09T19:36:20Z</time>
      </trkpt>
      <trkpt lat="43.59357" lon="-1.44635">
        <ele>14.56</ele>
        <time>2017-03-09T19:36:31Z</time>
      </trkpt>
      <trkpt lat="43.59357" lon="-1.44663">
        <ele>15.04</ele>
        <time>2017-03-09T19:36:39Z</time>
      </trkpt>
      <trkpt lat="43.5935" lon="-1.44694">
        <ele>14.56</ele>
        <time>2017-03-09T19:36:49Z</time>
      </trkpt>
      <trkpt lat="43.59337" lon="-1.44701">
        <ele>13.6</ele>
        <time>2017-03-09T19:36:55Z</time>
      </trkpt>
      <trkpt lat="43.59318" lon="-1.44703">
        <ele>13.12</ele>
        <time>2017-03-09T19:37:03Z</time>
      </trkpt>
      <trkpt lat="43.59285" lon="-1.44709">
        <ele>15.04</ele>
        <time>2017-03-09T19:37:16Z</time>
      </trkpt>
      <trkpt lat="43.59253" lon="-1.44721">
        <ele>15.04</ele>
        <time>2017-03-09T19:37:28Z</time>
      </trkpt>
      <trkpt lat="43.59222" lon="-1.44733">
        <ele>16</ele>
        <time>2017-03-09T19:37:39Z</time>
      </trkpt>
      <trkpt lat="43.59193" lon="-1.44752">
        <ele>13.12</ele>
        <time>2017-03-09T19:37:51Z</time>
      </trkpt>
      <trkpt lat="43.5919" lon="-1.44753">
        <ele>12.63</ele>
        <time>2017-03-09T19:37:52Z</time>
      </trkpt>
      <trkpt lat="43.59182" lon="-1.44759">
        <ele>12.63</ele>
        <time>2017-03-09T19:37:56Z</time>
      </trkpt>
      <trkpt lat="43.59178" lon="-1.44762">
        <ele>13.12</ele>
        <time>2017-03-09T19:37:58Z</time>
      </trkpt>
      <trkpt lat="43.5917" lon="-1.44765">
        <ele>13.12</ele>
        <time>2017-03-09T19:38:01Z</time>
      </trkpt>
      <trkpt lat="43.59164" lon="-1.44785">
        <ele>12.63</ele>
        <time>2017-03-09T19:38:09Z</time>
      </trkpt>
      <trkpt lat="43.59173" lon="-1.44793">
        <ele>13.12</ele>
        <time>2017-03-09T19:38:14Z</time>
      </trkpt>
      <trkpt lat="43.59177" lon="-1.44796">
        <ele>13.12</ele>
        <time>2017-03-09T19:38:16Z</time>
      </trkpt>
      <trkpt lat="43.59184" lon="-1.44814">
        <ele>14.56</ele>
        <time>2017-03-09T19:38:22Z</time>
      </trkpt>
      <trkpt lat="43.59189" lon="-1.44825">
        <ele>15.04</ele>
        <time>2017-03-09T19:38:26Z</time>
      </trkpt>
      <trkpt lat="43.59209" lon="-1.44876">
        <ele>15.52</ele>
        <time>2017-03-09T19:38:40Z</time>
      </trkpt>
      <trkpt lat="43.59225" lon="-1.44915">
        <ele>16.48</ele>
        <time>2017-03-09T19:38:51Z</time>
      </trkpt>
      <trkpt lat="43.59244" lon="-1.44962">
        <ele>17.44</ele>
        <time>2017-03-09T19:39:04Z</time>
      </trkpt>
      <trkpt lat="43.59271" lon="-1.45028">
        <ele>15.52</ele>
        <time>2017-03-09T19:39:21Z</time>
      </trkpt>
      <trkpt lat="43.5929" lon="-1.45076">
        <ele>16</ele>
        <time>2017-03-09T19:39:33Z</time>
      </trkpt>
      <trkpt lat="43.59315" lon="-1.45135">
        <ele>14.56</ele>
        <time>2017-03-09T19:39:48Z</time>
      </trkpt>
      <trkpt lat="43.59327" lon="-1.4516">
        <ele>15.52</ele>
        <time>2017-03-09T19:39:55Z</time>
      </trkpt>
      <trkpt lat="43.59334" lon="-1.45181">
        <ele>15.04</ele>
        <time>2017-03-09T19:40:01Z</time>
      </trkpt>
      <trkpt lat="43.59363" lon="-1.45249">
        <ele>15.04</ele>
        <time>2017-03-09T19:40:20Z</time>
      </trkpt>
      <trkpt lat="43.59387" lon="-1.45309">
        <ele>16.48</ele>
        <time>2017-03-09T19:40:36Z</time>
      </trkpt>
      <trkpt lat="43.59408" lon="-1.45357">
        <ele>16.96</ele>
        <time>2017-03-09T19:40:49Z</time>
      </trkpt>
      <trkpt lat="43.59421" lon="-1.45391">
        <ele>13.12</ele>
        <time>2017-03-09T19:40:58Z</time>
      </trkpt>
      <trkpt lat="43.59441" lon="-1.45441">
        <ele>12.63</ele>
        <time>2017-03-09T19:41:11Z</time>
      </trkpt>
      <trkpt lat="43.59463" lon="-1.45488">
        <ele>10.23</ele>
        <time>2017-03-09T19:41:24Z</time>
      </trkpt>
      <trkpt lat="43.5948" lon="-1.45527">
        <ele>14.08</ele>
        <time>2017-03-09T19:41:35Z</time>
      </trkpt>
      <trkpt lat="43.59495" lon="-1.45562">
        <ele>16</ele>
        <time>2017-03-09T19:41:45Z</time>
      </trkpt>
      <trkpt lat="43.59511" lon="-1.45601">
        <ele>16</ele>
        <time>2017-03-09T19:41:55Z</time>
      </trkpt>
      <trkpt lat="43.59516" lon="-1.45612">
        <ele>16</ele>
        <time>2017-03-09T19:41:58Z</time>
      </trkpt>
      <trkpt lat="43.59541" lon="-1.4565">
        <ele>23.69</ele>
        <time>2017-03-09T19:42:11Z</time>
      </trkpt>
      <trkpt lat="43.59555" lon="-1.45685">
        <ele>27.53</ele>
        <time>2017-03-09T19:42:21Z</time>
      </trkpt>
      <trkpt lat="43.59571" lon="-1.45722">
        <ele>28.98</ele>
        <time>2017-03-09T19:42:31Z</time>
      </trkpt>
      <trkpt lat="43.59591" lon="-1.45776">
        <ele>22.25</ele>
        <time>2017-03-09T19:42:45Z</time>
      </trkpt>
      <trkpt lat="43.59601" lon="-1.45825">
        <ele>16.96</ele>
        <time>2017-03-09T19:42:57Z</time>
      </trkpt>
      <trkpt lat="43.59606" lon="-1.45876">
        <ele>12.15</ele>
        <time>2017-03-09T19:43:09Z</time>
      </trkpt>
      <trkpt lat="43.59607" lon="-1.45941">
        <ele>9.75</ele>
        <time>2017-03-09T19:43:24Z</time>
      </trkpt>
      <trkpt lat="43.59607" lon="-1.45996">
        <ele>8.79</ele>
        <time>2017-03-09T19:43:37Z</time>
      </trkpt>
      <trkpt lat="43.59609" lon="-1.46014">
        <ele>8.79</ele>
        <time>2017-03-09T19:43:42Z</time>
      </trkpt>
      <trkpt lat="43.59618" lon="-1.46021">
        <ele>9.75</ele>
        <time>2017-03-09T19:43:46Z</time>
      </trkpt>
      <trkpt lat="43.59652" lon="-1.46018">
        <ele>11.19</ele>
        <time>2017-03-09T19:43:59Z</time>
      </trkpt>
      <trkpt lat="43.59681" lon="-1.46015">
        <ele>15.04</ele>
        <time>2017-03-09T19:44:09Z</time>
      </trkpt>
      <trkpt lat="43.59707" lon="-1.46016">
        <ele>16.96</ele>
        <time>2017-03-09T19:44:19Z</time>
      </trkpt>
      <trkpt lat="43.59736" lon="-1.46017">
        <ele>18.4</ele>
        <time>2017-03-09T19:44:29Z</time>
      </trkpt>
      <trkpt lat="43.59764" lon="-1.46018">
        <ele>16.96</ele>
        <time>2017-03-09T19:44:40Z</time>
      </trkpt>
      <trkpt lat="43.59791" lon="-1.46018">
        <ele>18.4</ele>
        <time>2017-03-09T19:44:49Z</time>
      </trkpt>
      <trkpt lat="43.59806" lon="-1.46016">
        <ele>19.36</ele>
        <time>2017-03-09T19:44:54Z</time>
      </trkpt>
      <trkpt lat="43.59839" lon="-1.4601">
        <ele>21.29</ele>
        <time>2017-03-09T19:45:05Z</time>
      </trkpt>
      <trkpt lat="43.59867" lon="-1.46002">
        <ele>20.81</ele>
        <time>2017-03-09T19:45:14Z</time>
      </trkpt>
      <trkpt lat="43.59912" lon="-1.45985">
        <ele>20.32</ele>
        <time>2017-03-09T19:45:28Z</time>
      </trkpt>
      <trkpt lat="43.59945" lon="-1.45974">
        <ele>18.4</ele>
        <time>2017-03-09T19:45:38Z</time>
      </trkpt>
      <trkpt lat="43.59974" lon="-1.4596">
        <ele>17.44</ele>
        <time>2017-03-09T19:45:48Z</time>
      </trkpt>
      <trkpt lat="43.6" lon="-1.45942">
        <ele>17.92</ele>
        <time>2017-03-09T19:45:57Z</time>
      </trkpt>
      <trkpt lat="43.60025" lon="-1.45925">
        <ele>17.92</ele>
        <time>2017-03-09T19:46:06Z</time>
      </trkpt>
      <trkpt lat="43.60051" lon="-1.45908">
        <ele>17.44</ele>
        <time>2017-03-09T19:46:15Z</time>
      </trkpt>
      <trkpt lat="43.60076" lon="-1.45889">
        <ele>16.96</ele>
        <time>2017-03-09T19:46:24Z</time>
      </trkpt>
      <trkpt lat="43.6011" lon="-1.45867">
        <ele>19.84</ele>
        <time>2017-03-09T19:46:36Z</time>
      </trkpt>
      <trkpt lat="43.60143" lon="-1.45836">
        <ele>20.81</ele>
        <time>2017-03-09T19:46:48Z</time>
      </trkpt>
      <trkpt lat="43.60175" lon="-1.45806">
        <ele>26.09</ele>
        <time>2017-03-09T19:46:59Z</time>
      </trkpt>
      <trkpt lat="43.60207" lon="-1.45777">
        <ele>32.34</ele>
        <time>2017-03-09T19:47:10Z</time>
      </trkpt>
      <trkpt lat="43.60231" lon="-1.45758">
        <ele>38.59</ele>
        <time>2017-03-09T19:47:19Z</time>
      </trkpt>
      <trkpt lat="43.60257" lon="-1.45742">
        <ele>43.88</ele>
        <time>2017-03-09T19:47:28Z</time>
      </trkpt>
      <trkpt lat="43.60291" lon="-1.45717">
        <ele>53.01</ele>
        <time>2017-03-09T19:47:40Z</time>
      </trkpt>
      <trkpt lat="43.60319" lon="-1.45704">
        <ele>53.49</ele>
        <time>2017-03-09T19:47:49Z</time>
      </trkpt>
      <trkpt lat="43.60345" lon="-1.45692">
        <ele>52.53</ele>
        <time>2017-03-09T19:47:58Z</time>
      </trkpt>
      <trkpt lat="43.60351" lon="-1.4569">
        <ele>52.05</ele>
        <time>2017-03-09T19:48:00Z</time>
      </trkpt>
      <trkpt lat="43.60365" lon="-1.45687">
        <ele>52.05</ele>
        <time>2017-03-09T19:48:05Z</time>
      </trkpt>
      <trkpt lat="43.6037" lon="-1.45685">
        <ele>52.05</ele>
        <time>2017-03-09T19:48:07Z</time>
      </trkpt>
      <trkpt lat="43.60396" lon="-1.45672">
        <ele>50.13</ele>
        <time>2017-03-09T19:48:15Z</time>
      </trkpt>
      <trkpt lat="43.60437" lon="-1.45657">
        <ele>48.68</ele>
        <time>2017-03-09T19:48:28Z</time>
      </trkpt>
      <trkpt lat="43.60469" lon="-1.45644">
        <ele>47.72</ele>
        <time>2017-03-09T19:48:38Z</time>
      </trkpt>
      <trkpt lat="43.60492" lon="-1.4563">
        <ele>46.76</ele>
        <time>2017-03-09T19:48:46Z</time>
      </trkpt>
      <trkpt lat="43.60499" lon="-1.45625">
        <ele>46.28</ele>
        <time>2017-03-09T19:48:49Z</time>
      </trkpt>
      <trkpt lat="43.60525" lon="-1.45603">
        <ele>44.84</ele>
        <time>2017-03-09T19:49:00Z</time>
      </trkpt>
      <trkpt lat="43.60548" lon="-1.45583">
        <ele>45.32</ele>
        <time>2017-03-09T19:49:08Z</time>
      </trkpt>
      <trkpt lat="43.60572" lon="-1.45557">
        <ele>47.24</ele>
        <time>2017-03-09T19:49:18Z</time>
      </trkpt>
      <trkpt lat="43.60577" lon="-1.45552">
        <ele>48.2</ele>
        <time>2017-03-09T19:49:20Z</time>
      </trkpt>
      <trkpt lat="43.60598" lon="-1.45524">
        <ele>50.13</ele>
        <time>2017-03-09T19:49:30Z</time>
      </trkpt>
      <trkpt lat="43.60612" lon="-1.45512">
        <ele>50.61</ele>
        <time>2017-03-09T19:49:37Z</time>
      </trkpt>
      <trkpt lat="43.60637" lon="-1.45492">
        <ele>50.61</ele>
        <time>2017-03-09T19:49:46Z</time>
      </trkpt>
      <trkpt lat="43.60645" lon="-1.45484">
        <ele>50.13</ele>
        <time>2017-03-09T19:49:49Z</time>
      </trkpt>
      <trkpt lat="43.60652" lon="-1.45472">
        <ele>37.63</ele>
        <time>2017-03-09T19:49:56Z</time>
      </trkpt>
      <trkpt lat="43.60652" lon="-1.45449">
        <ele>40.51</ele>
        <time>2017-03-09T19:50:05Z</time>
      </trkpt>
      <trkpt lat="43.60649" lon="-1.45423">
        <ele>37.15</ele>
        <time>2017-03-09T19:50:13Z</time>
      </trkpt>
      <trkpt lat="43.60646" lon="-1.45402">
        <ele>38.11</ele>
        <time>2017-03-09T19:50:19Z</time>
      </trkpt>
      <trkpt lat="43.60638" lon="-1.45378">
        <ele>36.67</ele>
        <time>2017-03-09T19:50:24Z</time>
      </trkpt>
      <trkpt lat="43.60631" lon="-1.45365">
        <ele>35.23</ele>
        <time>2017-03-09T19:50:27Z</time>
      </trkpt>
      <trkpt lat="43.6061" lon="-1.45328">
        <ele>32.82</ele>
        <time>2017-03-09T19:50:38Z</time>
      </trkpt>
      <trkpt lat="43.60587" lon="-1.45296">
        <ele>32.82</ele>
        <time>2017-03-09T19:50:48Z</time>
      </trkpt>
      <trkpt lat="43.60562" lon="-1.4526">
        <ele>25.61</ele>
        <time>2017-03-09T19:50:59Z</time>
      </trkpt>
      <trkpt lat="43.60529" lon="-1.45206">
        <ele>7.35</ele>
        <time>2017-03-09T19:51:14Z</time>
      </trkpt>
      <trkpt lat="43.60517" lon="-1.4518">
        <ele>6.87</ele>
        <time>2017-03-09T19:51:22Z</time>
      </trkpt>
      <trkpt lat="43.60486" lon="-1.45133">
        <ele>6.39</ele>
        <time>2017-03-09T19:51:37Z</time>
      </trkpt>
      <trkpt lat="43.60477" lon="-1.4512">
        <ele>6.87</ele>
        <time>2017-03-09T19:51:42Z</time>
      </trkpt>
      <trkpt lat="43.60451" lon="-1.45083">
        <ele>6.39</ele>
        <time>2017-03-09T19:51:55Z</time>
      </trkpt>
      <trkpt lat="43.60436" lon="-1.45052">
        <ele>9.75</ele>
        <time>2017-03-09T19:52:05Z</time>
      </trkpt>
      <trkpt lat="43.60434" lon="-1.45048">
        <ele>9.75</ele>
        <time>2017-03-09T19:52:06Z</time>
      </trkpt>
      <trkpt lat="43.60425" lon="-1.4501">
        <ele>11.19</ele>
        <time>2017-03-09T19:52:16Z</time>
      </trkpt>
      <trkpt lat="43.60422" lon="-1.44986">
        <ele>12.15</ele>
        <time>2017-03-09T19:52:22Z</time>
      </trkpt>
      <trkpt lat="43.60403" lon="-1.44975">
        <ele>18.88</ele>
        <time>2017-03-09T19:52:32Z</time>
      </trkpt>
      <trkpt lat="43.6037" lon="-1.4494">
        <ele>20.81</ele>
        <time>2017-03-09T19:52:43Z</time>
      </trkpt>
      <trkpt lat="43.60342" lon="-1.44927">
        <ele>18.88</ele>
        <time>2017-03-09T19:52:53Z</time>
      </trkpt>
      <trkpt lat="43.60312" lon="-1.44914">
        <ele>13.6</ele>
        <time>2017-03-09T19:53:03Z</time>
      </trkpt>
      <trkpt lat="43.60277" lon="-1.44902">
        <ele>15.04</ele>
        <time>2017-03-09T19:53:15Z</time>
      </trkpt>
      <trkpt lat="43.60267" lon="-1.44892">
        <ele>21.29</ele>
        <time>2017-03-09T19:53:23Z</time>
      </trkpt>
      <trkpt lat="43.60271" lon="-1.44876">
        <ele>32.82</ele>
        <time>2017-03-09T19:53:35Z</time>
      </trkpt>
      <trkpt lat="43.6027" lon="-1.44874">
        <ele>32.82</ele>
        <time>2017-03-09T19:53:36Z</time>
      </trkpt>
      <trkpt lat="43.60247" lon="-1.44854">
        <ele>32.82</ele>
        <time>2017-03-09T19:53:48Z</time>
      </trkpt>
      <trkpt lat="43.60235" lon="-1.44844">
        <ele>32.34</ele>
        <time>2017-03-09T19:53:53Z</time>
      </trkpt>
      <trkpt lat="43.60195" lon="-1.44832">
        <ele>29.94</ele>
        <time>2017-03-09T19:53:59Z</time>
      </trkpt>
      <trkpt lat="43.60137" lon="-1.44812">
        <ele>23.69</ele>
        <time>2017-03-09T19:54:11Z</time>
      </trkpt>
      <trkpt lat="43.60099" lon="-1.44795">
        <ele>21.29</ele>
        <time>2017-03-09T19:54:22Z</time>
      </trkpt>
      <trkpt lat="43.60065" lon="-1.44777">
        <ele>20.81</ele>
        <time>2017-03-09T19:54:33Z</time>
      </trkpt>
      <trkpt lat="43.60038" lon="-1.44756">
        <ele>21.29</ele>
        <time>2017-03-09T19:54:43Z</time>
      </trkpt>
      <trkpt lat="43.60005" lon="-1.44733">
        <ele>20.81</ele>
        <time>2017-03-09T19:54:55Z</time>
      </trkpt>
      <trkpt lat="43.5998" lon="-1.44712">
        <ele>15.52</ele>
        <time>2017-03-09T19:55:06Z</time>
      </trkpt>
      <trkpt lat="43.59952" lon="-1.44692">
        <ele>13.12</ele>
        <time>2017-03-09T19:55:17Z</time>
      </trkpt>
      <trkpt lat="43.59915" lon="-1.44676">
        <ele>11.67</ele>
        <time>2017-03-09T19:55:27Z</time>
      </trkpt>
      <trkpt lat="43.5989" lon="-1.4466">
        <ele>13.12</ele>
        <time>2017-03-09T19:55:36Z</time>
      </trkpt>
      <trkpt lat="43.59869" lon="-1.44628">
        <ele>18.88</ele>
        <time>2017-03-09T19:55:48Z</time>
      </trkpt>
      <trkpt lat="43.59855" lon="-1.44608">
        <ele>18.4</ele>
        <time>2017-03-09T19:55:55Z</time>
      </trkpt>
      <trkpt lat="43.5984" lon="-1.44581">
        <ele>18.4</ele>
        <time>2017-03-09T19:56:04Z</time>
      </trkpt>
      <trkpt lat="43.5983" lon="-1.44556">
        <ele>20.32</ele>
        <time>2017-03-09T19:56:12Z</time>
      </trkpt>
      <trkpt lat="43.59833" lon="-1.44506">
        <ele>21.77</ele>
        <time>2017-03-09T19:56:26Z</time>
      </trkpt>
      <trkpt lat="43.59828" lon="-1.44472">
        <ele>22.25</ele>
        <time>2017-03-09T19:56:36Z</time>
      </trkpt>
      <trkpt lat="43.59823" lon="-1.44459">
        <ele>22.25</ele>
        <time>2017-03-09T19:56:40Z</time>
      </trkpt>
      <trkpt lat="43.5981" lon="-1.44427">
        <ele>24.65</ele>
        <time>2017-03-09T19:56:51Z</time>
      </trkpt>
      <trkpt lat="43.59806" lon="-1.44413">
        <ele>23.69</ele>
        <time>2017-03-09T19:56:55Z</time>
      </trkpt>
      <trkpt lat="43.59803" lon="-1.44398">
        <ele>22.25</ele>
        <time>2017-03-09T19:56:59Z</time>
      </trkpt>
      <trkpt lat="43.59798" lon="-1.44366">
        <ele>19.84</ele>
        <time>2017-03-09T19:57:09Z</time>
      </trkpt>
      <trkpt lat="43.59798" lon="-1.44361">
        <ele>18.88</ele>
        <time>2017-03-09T19:57:10Z</time>
      </trkpt>
      <trkpt lat="43.59793" lon="-1.44325">
        <ele>19.84</ele>
        <time>2017-03-09T19:57:20Z</time>
      </trkpt>
      <trkpt lat="43.5979" lon="-1.44316">
        <ele>19.36</ele>
        <time>2017-03-09T19:57:23Z</time>
      </trkpt>
      <trkpt lat="43.59786" lon="-1.44303">
        <ele>21.29</ele>
        <time>2017-03-09T19:57:27Z</time>
      </trkpt>
      <trkpt lat="43.59782" lon="-1.44293">
        <ele>22.73</ele>
        <time>2017-03-09T19:57:31Z</time>
      </trkpt>
      <trkpt lat="43.59773" lon="-1.4428">
        <ele>24.65</ele>
        <time>2017-03-09T19:57:38Z</time>
      </trkpt>
      <trkpt lat="43.5977" lon="-1.4427">
        <ele>25.13</ele>
        <time>2017-03-09T19:57:41Z</time>
      </trkpt>
      <trkpt lat="43.59767" lon="-1.4426">
        <ele>25.61</ele>
        <time>2017-03-09T19:57:45Z</time>
      </trkpt>
      <trkpt lat="43.59766" lon="-1.44254">
        <ele>25.61</ele>
        <time>2017-03-09T19:57:47Z</time>
      </trkpt>
      <trkpt lat="43.59759" lon="-1.44234">
        <ele>26.09</ele>
        <time>2017-03-09T19:57:54Z</time>
      </trkpt>
      <trkpt lat="43.59759" lon="-1.44225">
        <ele>25.13</ele>
        <time>2017-03-09T19:57:56Z</time>
      </trkpt>
      <trkpt lat="43.59763" lon="-1.44217">
        <ele>19.84</ele>
        <time>2017-03-09T19:58:00Z</time>
      </trkpt>
      <trkpt lat="43.5977" lon="-1.44243">
        <ele>21.77</ele>
        <time>2017-03-09T19:58:13Z</time>
      </trkpt>
      <trkpt lat="43.59771" lon="-1.44248">
        <ele>22.25</ele>
        <time>2017-03-09T19:58:15Z</time>
      </trkpt>
      <trkpt lat="43.59765" lon="-1.44256">
        <ele>22.73</ele>
        <time>2017-03-09T19:58:20Z</time>
      </trkpt>
      <trkpt lat="43.59752" lon="-1.44261">
        <ele>22.73</ele>
        <time>2017-03-09T19:58:28Z</time>
      </trkpt>
      <trkpt lat="43.59732" lon="-1.4429">
        <ele>18.88</ele>
        <time>2017-03-09T19:58:38Z</time>
      </trkpt>
      <trkpt lat="43.59726" lon="-1.44299">
        <ele>18.88</ele>
        <time>2017-03-09T19:58:42Z</time>
      </trkpt>
      <trkpt lat="43.59717" lon="-1.44308">
        <ele>20.32</ele>
        <time>2017-03-09T19:58:48Z</time>
      </trkpt>
      <trkpt lat="43.59702" lon="-1.44282">
        <ele>22.73</ele>
        <time>2017-03-09T19:58:58Z</time>
      </trkpt>
      <trkpt lat="43.59686" lon="-1.44258">
        <ele>24.17</ele>
        <time>2017-03-09T19:59:07Z</time>
      </trkpt>
      <trkpt lat="43.59676" lon="-1.44225">
        <ele>28.02</ele>
        <time>2017-03-09T19:59:19Z</time>
      </trkpt>
      <trkpt lat="43.59676" lon="-1.4422">
        <ele>28.98</ele>
        <time>2017-03-09T19:59:21Z</time>
      </trkpt>
      <trkpt lat="43.59673" lon="-1.44204">
        <ele>31.86</ele>
        <time>2017-03-09T19:59:28Z</time>
      </trkpt>
      <trkpt lat="43.59669" lon="-1.44189">
        <ele>32.34</ele>
        <time>2017-03-09T19:59:33Z</time>
      </trkpt>
      <trkpt lat="43.59668" lon="-1.44171">
        <ele>34.26</ele>
        <time>2017-03-09T19:59:39Z</time>
      </trkpt>
      <trkpt lat="43.59671" lon="-1.44153">
        <ele>35.71</ele>
        <time>2017-03-09T19:59:46Z</time>
      </trkpt>
      <trkpt lat="43.59668" lon="-1.44127">
        <ele>31.86</ele>
        <time>2017-03-09T19:59:53Z</time>
      </trkpt>
      <trkpt lat="43.59669" lon="-1.44116">
        <ele>29.94</ele>
        <time>2017-03-09T19:59:55Z</time>
      </trkpt>
      <trkpt lat="43.59674" lon="-1.44073">
        <ele>27.53</ele>
        <time>2017-03-09T20:00:04Z</time>
      </trkpt>
      <trkpt lat="43.59672" lon="-1.44048">
        <ele>28.5</ele>
        <time>2017-03-09T20:00:12Z</time>
      </trkpt>
      <trkpt lat="43.59673" lon="-1.44033">
        <ele>29.94</ele>
        <time>2017-03-09T20:00:17Z</time>
      </trkpt>
      <trkpt lat="43.5967" lon="-1.44018">
        <ele>31.38</ele>
        <time>2017-03-09T20:00:22Z</time>
      </trkpt>
      <trkpt lat="43.59663" lon="-1.43982">
        <ele>29.46</ele>
        <time>2017-03-09T20:00:32Z</time>
      </trkpt>
      <trkpt lat="43.59662" lon="-1.43971">
        <ele>28.98</ele>
        <time>2017-03-09T20:00:36Z</time>
      </trkpt>
      <trkpt lat="43.59652" lon="-1.43945">
        <ele>29.46</ele>
        <time>2017-03-09T20:00:46Z</time>
      </trkpt>
      <trkpt lat="43.5965" lon="-1.43942">
        <ele>29.46</ele>
        <time>2017-03-09T20:00:47Z</time>
      </trkpt>
      <trkpt lat="43.59647" lon="-1.43939">
        <ele>29.94</ele>
        <time>2017-03-09T20:00:49Z</time>
      </trkpt>
      <trkpt lat="43.59637" lon="-1.4392">
        <ele>33.3</ele>
        <time>2017-03-09T20:00:56Z</time>
      </trkpt>
      <trkpt lat="43.59608" lon="-1.43867">
        <ele>36.19</ele>
        <time>2017-03-09T20:01:10Z</time>
      </trkpt>
      <trkpt lat="43.59599" lon="-1.43854">
        <ele>36.67</ele>
        <time>2017-03-09T20:01:15Z</time>
      </trkpt>
      <trkpt lat="43.59597" lon="-1.43849">
        <ele>37.63</ele>
        <time>2017-03-09T20:01:17Z</time>
      </trkpt>
      <trkpt lat="43.59597" lon="-1.43828">
        <ele>40.99</ele>
        <time>2017-03-09T20:01:23Z</time>
      </trkpt>
      <trkpt lat="43.59601" lon="-1.43816">
        <ele>43.4</ele>
        <time>2017-03-09T20:01:27Z</time>
      </trkpt>
      <trkpt lat="43.59622" lon="-1.43772">
        <ele>42.44</ele>
        <time>2017-03-09T20:01:37Z</time>
      </trkpt>
      <trkpt lat="43.59635" lon="-1.43745">
        <ele>41.95</ele>
        <time>2017-03-09T20:01:44Z</time>
      </trkpt>
      <trkpt lat="43.59655" lon="-1.43694">
        <ele>39.07</ele>
        <time>2017-03-09T20:01:57Z</time>
      </trkpt>
      <trkpt lat="43.59685" lon="-1.43657">
        <ele>37.63</ele>
        <time>2017-03-09T20:02:10Z</time>
      </trkpt>
      <trkpt lat="43.59714" lon="-1.4363">
        <ele>33.78</ele>
        <time>2017-03-09T20:02:21Z</time>
      </trkpt>
      <trkpt lat="43.59721" lon="-1.43625">
        <ele>32.34</ele>
        <time>2017-03-09T20:02:24Z</time>
      </trkpt>
      <trkpt lat="43.59729" lon="-1.43626">
        <ele>31.38</ele>
        <time>2017-03-09T20:02:28Z</time>
      </trkpt>
      <trkpt lat="43.59755" lon="-1.43648">
        <ele>26.57</ele>
        <time>2017-03-09T20:02:42Z</time>
      </trkpt>
      <trkpt lat="43.59759" lon="-1.43682">
        <ele>27.53</ele>
        <time>2017-03-09T20:02:53Z</time>
      </trkpt>
      <trkpt lat="43.59764" lon="-1.4372">
        <ele>28.98</ele>
        <time>2017-03-09T20:03:04Z</time>
      </trkpt>
      <trkpt lat="43.59766" lon="-1.43735">
        <ele>29.94</ele>
        <time>2017-03-09T20:03:08Z</time>
      </trkpt>
      <trkpt lat="43.59778" lon="-1.43749">
        <ele>31.38</ele>
        <time>2017-03-09T20:03:18Z</time>
      </trkpt>
      <trkpt lat="43.5978" lon="-1.43765">
        <ele>32.82</ele>
        <time>2017-03-09T20:03:26Z</time>
      </trkpt>
      <trkpt lat="43.5978" lon="-1.43768">
        <ele>33.3</ele>
        <time>2017-03-09T20:03:27Z</time>
      </trkpt>
      <trkpt lat="43.5977" lon="-1.43812">
        <ele>37.63</ele>
        <time>2017-03-09T20:03:41Z</time>
      </trkpt>
      <trkpt lat="43.59788" lon="-1.43854">
        <ele>36.19</ele>
        <time>2017-03-09T20:03:52Z</time>
      </trkpt>
      <trkpt lat="43.59811" lon="-1.43879">
        <ele>32.34</ele>
        <time>2017-03-09T20:04:02Z</time>
      </trkpt>
      <trkpt lat="43.59813" lon="-1.43881">
        <ele>31.86</ele>
        <time>2017-03-09T20:04:03Z</time>
      </trkpt>
      <trkpt lat="43.59817" lon="-1.4391">
        <ele>24.65</ele>
        <time>2017-03-09T20:04:14Z</time>
      </trkpt>
      <trkpt lat="43.59811" lon="-1.43934">
        <ele>17.92</ele>
        <time>2017-03-09T20:04:27Z</time>
      </trkpt>
      <trkpt lat="43.59812" lon="-1.43935">
        <ele>17.92</ele>
        <time>2017-03-09T20:04:28Z</time>
      </trkpt>
      <trkpt lat="43.59814" lon="-1.43935">
        <ele>16.96</ele>
        <time>2017-03-09T20:04:31Z</time>
      </trkpt>
    </trkseg>
  </trk>
</gpx>